Time;durP1;ratioP1;P1;durP2;ratioP2;P2;SDS_P1;SDS_P2;PMS_P1;PMS_P2;Temp;Humidity;BMP_temperature;BMP_pressure;BME280_temperature;BME280_humidity;BME280_pressure;Samples;Min_cycle;Max_cycle;Signal;HPM_P1;HPM_P2
2021/06/12 00:01:52;;;;;;;;;;;;;;;16.90;100.00;100804.00;4993057;28;20389;-74
2021/06/12 00:04:18;;;;;;;;;;;;;;;16.98;100.00;100798.56;4994379;28;19933;-72
2021/06/12 00:06:44;;;;;;;;;;;;;;;17.02;100.00;100799.06;4994573;28;20451;-72
2021/06/12 00:09:10;;;;;;;;;;;;;;;17.04;100.00;100799.78;4994484;28;19930;-74
2021/06/12 00:11:36;;;;;;;;;;;;;;;17.01;100.00;100803.72;4993994;28;19929;-72
2021/06/12 00:14:02;;;;;;;;;;;;;;;16.94;100.00;100791.66;4994486;28;19996;-73
2021/06/12 00:16:29;;;;;;;;;;;;;;;16.93;100.00;100797.31;4994198;28;19972;-73
2021/06/12 00:18:55;;;;;;;;;;;;;;;16.92;100.00;100784.66;4994331;28;20316;-74
2021/06/12 00:21:20;;;;;;;;;;;;;;;16.94;100.00;100788.09;4994229;28;19925;-72
2021/06/12 00:23:46;;;;;;;;;;;;;;;16.97;100.00;100785.88;5008374;28;19932;-72
2021/06/12 00:26:13;;;;;;;;;;;;;;;16.96;100.00;100786.91;4994110;28;19925;-72
2021/06/12 00:28:39;;;;;;;;;;;;;;;16.96;100.00;100778.66;4993893;28;19961;-72
2021/06/12 00:31:05;;;;;;;;;;;;;;;16.98;100.00;100779.38;4994299;28;19926;-73
2021/06/12 00:33:32;;;;;;;;;;;;;;;16.95;100.00;100789.81;4994055;28;19926;-72
2021/06/12 00:35:58;;;;;;;;;;;;;;;16.94;100.00;100779.84;4993637;28;19930;-72
2021/06/12 00:38:24;;;;;;;;;;;;;;;16.90;100.00;100771.97;4994262;28;20431;-72
2021/06/12 00:40:50;;;;;;;;;;;;;;;16.96;100.00;100769.59;4993495;28;19973;-73
2021/06/12 00:43:16;;;;;;;;;;;;;;;16.98;100.00;100764.78;4993753;28;19926;-73
2021/06/12 00:45:46;;;;;;;;;;;;;;;17.01;100.00;100767.19;4993874;28;19972;-72
2021/06/12 00:48:12;;;;;;;;;;;;;;;17.04;100.00;100761.41;4992475;28;19980;-73
2021/06/12 00:50:39;;;;;;;;;;;;;;;17.06;100.00;100756.59;4993988;28;19926;-72
2021/06/12 00:53:05;;;;;;;;;;;;;;;17.10;100.00;100754.38;4993124;28;19930;-73
2021/06/12 00:55:31;;;;;;;;;;;;;;;17.13;100.00;100754.91;5008897;28;19974;-73
2021/06/12 00:57:57;;;;;;;;;;;;;;;17.20;100.00;100755.94;4993691;28;19932;-73
2021/06/12 01:00:23;;;;;;;;;;;;;;;17.29;100.00;100753.22;4993226;28;20181;-73
2021/06/12 01:02:49;;;;;;;;;;;;;;;17.34;100.00;100745.34;4993342;28;19940;-73
2021/06/12 01:05:16;;;;;;;;;;;;;;;17.40;100.00;100751.03;4993184;28;19925;-73
2021/06/12 01:07:44;;;;;;;;;;;;;;;17.45;100.00;100747.78;4993425;28;20024;-72
2021/06/12 01:10:11;;;;;;;;;;;;;;;17.47;100.00;100745.72;4993422;28;20035;-73
2021/06/12 01:12:40;;;;;;;;;;;;;;;17.46;100.00;100738.50;4991850;28;20020;-72
2021/06/12 01:15:09;;;;;;;;;;;;;;;17.45;100.00;100741.41;5008554;28;19949;-72
2021/06/12 01:17:39;;;;;;;;;;;;;;;17.43;100.00;100733.38;4992917;28;20384;-73
2021/06/12 01:20:23;;;;;;;;;;;;;;;17.44;100.00;100740.56;4992690;28;19995;-73
2021/06/12 01:23:05;;;;;;;;;;;;;;;17.44;100.00;100728.72;4988920;28;19965;-73
2021/06/12 01:25:39;;;;;;;;;;;;;;;17.43;100.00;100727.88;4993512;28;20016;-73
2021/06/12 01:28:10;;;;;;;;;;;;;;;17.46;100.00;100730.28;4993118;28;19980;-71
2021/06/12 01:30:39;;;;;;;;;;;;;;;17.50;100.00;100723.41;4992748;28;20447;-73
2021/06/12 01:33:07;;;;;;;;;;;;;;;17.54;100.00;100727.56;4993062;28;20205;-71
2021/06/12 01:35:34;;;;;;;;;;;;;;;17.56;100.00;100719.16;4992041;28;20458;-73
2021/06/12 01:38:01;;;;;;;;;;;;;;;17.60;100.00;100722.38;4992824;28;19926;-71
2021/06/12 01:40:29;;;;;;;;;;;;;;;17.65;100.00;100722.75;4992927;28;20449;-72
2021/06/12 01:42:56;;;;;;;;;;;;;;;17.67;100.00;100717.94;4992295;28;20016;-71
2021/06/12 01:45:22;;;;;;;;;;;;;;;17.68;100.00;100716.94;4992834;28;19961;-71
2021/06/12 01:47:50;;;;;;;;;;;;;;;17.70;100.00;100714.84;4992352;28;19980;-73
2021/06/12 01:50:17;;;;;;;;;;;;;;;17.69;100.00;100721.38;4992919;28;19958;-73
2021/06/12 01:52:43;;;;;;;;;;;;;;;17.63;100.00;100719.31;4992335;28;19961;-73
2021/06/12 01:55:10;;;;;;;;;;;;;;;17.64;100.00;100724.63;4992664;28;20403;-71
2021/06/12 01:57:36;;;;;;;;;;;;;;;17.64;100.00;100726.53;4992339;28;19997;-72
2021/06/12 02:00:03;;;;;;;;;;;;;;;17.64;100.00;100723.78;5007428;28;20393;-72
2021/06/12 02:02:38;;;;;;;;;;;;;;;17.65;100.00;100720.00;4992408;28;19926;-73
2021/06/12 02:05:07;;;;;;;;;;;;;;;17.67;100.00;100724.28;4992238;28;20161;-72
2021/06/12 02:07:33;;;;;;;;;;;;;;;17.69;100.00;100724.09;4992408;28;20018;-73
2021/06/12 02:10:00;;;;;;;;;;;;;;;17.69;100.00;100719.50;5007653;28;19937;-73
2021/06/12 02:12:28;;;;;;;;;;;;;;;17.73;100.00;100711.75;4991833;28;19932;-72
2021/06/12 02:14:55;;;;;;;;;;;;;;;17.69;100.00;100710.38;4992180;28;19926;-72
2021/06/12 02:17:21;;;;;;;;;;;;;;;17.70;100.00;100714.84;4991926;28;19926;-72
2021/06/12 02:19:47;;;;;;;;;;;;;;;17.72;100.00;100707.31;4992438;28;19933;-72
2021/06/12 02:22:14;;;;;;;;;;;;;;;17.71;100.00;100705.59;4992232;28;20007;-71
2021/06/12 02:24:41;;;;;;;;;;;;;;;17.72;100.00;100705.41;4990808;28;19937;-72
2021/06/12 02:27:08;;;;;;;;;;;;;;;17.70;100.00;100706.63;5007317;28;20352;-71
2021/06/12 02:29:35;;;;;;;;;;;;;;;17.68;100.00;100704.06;4992180;28;19933;-71
2021/06/12 02:32:03;;;;;;;;;;;;;;;17.69;100.00;100704.91;4990468;28;20304;-71
2021/06/12 02:34:29;;;;;;;;;;;;;;;17.70;100.00;100712.09;4992487;28;20020;-71
2021/06/12 02:36:55;;;;;;;;;;;;;;;17.70;100.00;100701.13;4991740;28;19980;-71
2021/06/12 02:39:22;;;;;;;;;;;;;;;17.70;100.00;100709.38;4992315;28;19926;-71
2021/06/12 02:41:48;;;;;;;;;;;;;;;17.71;100.00;100711.94;4991809;28;20164;-71
2021/06/12 02:44:14;;;;;;;;;;;;;;;17.74;100.00;100714.34;4992113;28;19927;-72
2021/06/12 02:46:41;;;;;;;;;;;;;;;17.78;100.00;100725.81;4994180;28;19930;-71
2021/06/12 02:49:08;;;;;;;;;;;;;;;17.81;100.00;100720.00;5010645;28;20451;-72
2021/06/12 02:51:35;;;;;;;;;;;;;;;17.85;100.00;100709.53;4995972;28;19926;-71
2021/06/12 02:54:01;;;;;;;;;;;;;;;17.93;100.00;100716.94;4995471;28;20381;-71
2021/06/12 02:56:30;;;;;;;;;;;;;;;18.00;100.00;100712.47;4994758;28;19932;-71
2021/06/12 02:59:00;;;;;;;;;;;;;;;18.04;100.00;100720.19;4995876;28;19988;-71
2021/06/12 03:01:27;;;;;;;;;;;;;;;18.06;100.00;100722.75;4995616;28;20308;-72
2021/06/12 03:03:54;;;;;;;;;;;;;;;18.07;100.00;100719.81;4995582;28;20272;-71
2021/06/12 03:06:20;;;;;;;;;;;;;;;18.09;100.00;100719.66;4995211;28;20013;-71
2021/06/12 03:08:50;;;;;;;;;;;;;;;18.10;100.00;100721.38;4995937;28;19926;-71
2021/06/12 03:11:17;;;;;;;;;;;;;;;18.14;100.00;100714.50;4995731;28;20400;-71
2021/06/12 03:13:45;;;;;;;;;;;;;;;18.19;100.00;100723.06;4995229;28;20358;-71
2021/06/12 03:16:11;;;;;;;;;;;;;;;18.26;100.00;100719.63;4995584;28;19925;-72
2021/06/12 03:18:38;;;;;;;;;;;;;;;18.32;100.00;100721.66;4995207;28;19926;-71
2021/06/12 03:21:05;;;;;;;;;;;;;;;18.41;100.00;100726.09;4995413;28;19925;-71
2021/06/12 03:23:32;;;;;;;;;;;;;;;18.49;100.00;100722.47;4994900;28;19925;-71
2021/06/12 03:25:58;;;;;;;;;;;;;;;18.55;100.00;100717.13;4994676;28;20400;-71
2021/06/12 03:28:24;;;;;;;;;;;;;;;18.55;100.00;100722.63;4995455;28;19926;-71
2021/06/12 03:30:52;;;;;;;;;;;;;;;18.52;100.00;100723.00;4994990;28;19930;-72
2021/06/12 03:33:17;;;;;;;;;;;;;;;18.50;100.00;100726.94;4995250;28;19930;-71
2021/06/12 03:35:45;;;;;;;;;;;;;;;18.46;100.00;100729.19;4995369;28;19926;-71
2021/06/12 03:38:11;;;;;;;;;;;;;;;18.43;100.00;100734.19;4995146;28;19945;-72
2021/06/12 03:40:37;;;;;;;;;;;;;;;18.37;100.00;100736.59;4995256;28;19972;-71
2021/06/12 03:43:04;;;;;;;;;;;;;;;18.27;100.00;100744.19;4993167;28;19926;-72
2021/06/12 03:45:31;;;;;;;;;;;;;;;18.24;100.00;100756.38;4995326;28;19937;-71
2021/06/12 03:47:59;;;;;;;;;;;;;;;18.18;100.00;100753.47;4994736;28;19933;-71
2021/06/12 03:50:27;;;;;;;;;;;;;;;18.03;100.00;100756.06;4994929;28;19926;-72
2021/06/12 03:52:53;;;;;;;;;;;;;;;18.03;100.00;100756.06;4994750;28;19930;-71
2021/06/12 03:55:19;;;;;;;;;;;;;;;17.97;100.00;100751.25;4994677;28;19981;-71
2021/06/12 03:57:45;;;;;;;;;;;;;;;17.95;100.00;100758.81;4993934;28;19925;-72
2021/06/12 04:00:11;;;;;;;;;;;;;;;17.91;100.00;100770.09;4994615;28;19983;-72
2021/06/12 04:02:40;;;;;;;;;;;;;;;17.90;100.00;100760.16;4994670;28;19968;-71
2021/06/12 04:05:08;;;;;;;;;;;;;;;17.97;100.00;100756.75;4994641;28;20036;-71
2021/06/12 04:07:34;;;;;;;;;;;;;;;18.01;100.00;100744.38;4994524;28;19940;-71
2021/06/12 04:09:59;;;;;;;;;;;;;;;18.05;100.00;100749.38;4994728;28;20026;-71
2021/06/12 04:12:25;;;;;;;;;;;;;;;18.17;100.00;100751.75;4994184;28;20041;-71
2021/06/12 04:14:51;;;;;;;;;;;;;;;18.24;100.00;100756.38;4994155;28;19933;-71
2021/06/12 04:17:17;;;;;;;;;;;;;;;18.29;100.00;100752.25;4994759;28;19930;-71
2021/06/12 04:19:43;;;;;;;;;;;;;;;18.28;100.00;100754.16;5009470;28;19925;-71
2021/06/12 04:22:10;;;;;;;;;;;;;;;18.34;100.00;100747.94;4994194;28;19930;-71
2021/06/12 04:24:36;;;;;;;;;;;;;;;18.40;100.00;100735.41;4994244;28;19933;-71
2021/06/12 04:27:02;;;;;;;;;;;;;;;18.48;100.00;100729.88;4994058;28;20076;-71
2021/06/12 04:29:28;;;;;;;;;;;;;;;18.44;100.00;100734.00;4994335;28;19926;-72
2021/06/12 04:31:54;;;;;;;;;;;;;;;18.39;100.00;100736.44;4993327;28;19980;-71
2021/06/12 04:34:20;;;;;;;;;;;;;;;18.38;100.00;100740.19;4994273;28;20024;-71
2021/06/12 04:36:46;;;;;;;;;;;;;;;18.39;100.00;100736.44;5009118;28;19925;-71
2021/06/12 04:39:13;;;;;;;;;;;;;;;18.38;100.00;100734.72;4994136;28;19926;-71
2021/06/12 04:41:38;;;;;;;;;;;;;;;18.49;100.00;100738.97;4993989;28;20396;-71
2021/06/12 04:44:05;;;;;;;;;;;;;;;18.60;100.00;100730.34;4993541;28;19930;-71
2021/06/12 04:46:31;;;;;;;;;;;;;;;18.67;100.00;100734.09;4993958;28;20304;-72
2021/06/12 04:48:57;;;;;;;;;;;;;;;18.80;100.00;100708.78;5008574;28;20469;-72
2021/06/12 04:51:22;;;;;;;;;;;;;;;18.89;100.00;100712.38;4993638;28;19925;-71
2021/06/12 04:53:48;;;;;;;;;;;;;;;18.94;100.00;100720.94;4993488;28;19937;-71
2021/06/12 04:56:15;;;;;;;;;;;;;;;19.02;100.00;100726.41;4993796;28;19961;-73
2021/06/12 04:58:41;;;;;;;;;;;;;;;19.11;100.00;100721.72;4993701;28;19957;-72
2021/06/12 05:01:07;;;;;;;;;;;;;;;19.21;100.00;100714.09;4993115;28;19925;-73
2021/06/12 05:03:35;;;;;;;;;;;;;;;19.18;100.00;100716.34;4993327;28;19933;-72
2021/06/12 05:06:00;;;;;;;;;;;;;;;19.18;100.00;100713.59;4993227;28;19930;-72
2021/06/12 05:08:26;;;;;;;;;;;;;;;19.12;100.00;100717.94;4992939;28;19926;-73
2021/06/12 05:10:52;;;;;;;;;;;;;;;19.16;100.00;100719.28;4992385;28;20380;-73
2021/06/12 05:13:19;;;;;;;;;;;;;;;19.26;100.00;100718.19;4992799;28;19926;-70
2021/06/12 05:15:46;;;;;;;;;;;;;;;19.40;100.00;100710.00;4993257;28;19933;-71
2021/06/12 05:18:14;;;;;;;;;;;;;;;19.57;100.00;100710.75;4993244;28;20396;-72
2021/06/12 05:20:40;;;;;;;;;;;;;;;19.79;100.00;100699.00;4990949;28;19926;-71
2021/06/12 05:23:06;;;;;;;;;;;;;;;19.93;100.00;100689.97;5019841;28;19995;-71
2021/06/12 05:25:32;;;;;;;;;;;;;;;20.01;100.00;100689.03;5012434;28;19933;-71
2021/06/12 05:27:58;;;;;;;;;;;;;;;20.03;100.00;100679.53;4993641;28;20285;-71
2021/06/12 05:30:26;;;;;;;;;;;;;;;19.97;100.00;100691.31;4993073;28;19941;-72
2021/06/12 05:32:52;;;;;;;;;;;;;;;20.08;100.00;100684.47;4992493;28;19926;-71
2021/06/12 05:35:18;;;;;;;;;;;;;;;20.10;100.00;100687.91;4986989;28;19934;-72
2021/06/12 05:37:44;;;;;;;;;;;;;;;20.03;100.00;100684.19;5004166;28;19933;-72
2021/06/12 05:40:11;;;;;;;;;;;;;;;19.98;100.00;100687.50;5012678;28;20024;-72
2021/06/12 05:42:37;;;;;;;;;;;;;;;20.01;100.00;100691.78;4993401;28;19957;-71
2021/06/12 05:45:04;;;;;;;;;;;;;;;20.04;100.00;100691.41;4987776;28;20367;-71
2021/06/12 05:47:31;;;;;;;;;;;;;;;20.04;100.00;100694.16;4987764;28;19930;-71
2021/06/12 05:49:57;;;;;;;;;;;;;;;20.20;100.00;100693.13;4990489;28;19926;-72
2021/06/12 05:52:23;;;;;;;;;;;;;;;20.46;100.00;100703.69;4992019;28;19983;-72
2021/06/12 05:54:49;;;;;;;;;;;;;;;20.50;100.00;100710.53;4992552;28;19985;-71
2021/06/12 05:57:15;;;;;;;;;;;;;;;20.68;100.00;100703.78;4978613;28;19948;-71
2021/06/12 05:59:40;;;;;;;;;;;;;;;20.63;100.00;100698.84;4992482;28;19937;-71
2021/06/12 06:02:07;;;;;;;;;;;;;;;20.65;100.00;100696.75;4991702;28;20305;-71
2021/06/12 06:04:34;;;;;;;;;;;;;;;20.66;100.00;100694.84;4992508;28;19957;-71
2021/06/12 06:06:59;;;;;;;;;;;;;;;20.70;100.00;100698.97;4992328;28;19935;-71
2021/06/12 06:09:25;;;;;;;;;;;;;;;20.62;100.00;100701.78;5007295;28;20409;-70
2021/06/12 06:11:51;;;;;;;;;;;;;;;20.69;100.00;100705.53;4988629;28;19937;-71
2021/06/12 06:14:17;;;;;;;;;;;;;;;20.61;100.00;100700.94;4989244;28;19949;-71
2021/06/12 06:16:43;;;;;;;;;;;;;;;20.56;100.00;100708.91;4991456;28;19926;-71
2021/06/12 06:19:09;;;;;;;;;;;;;;;20.63;100.00;100707.13;4981996;28;20293;-72
2021/06/12 06:21:36;;;;;;;;;;;;;;;20.47;100.00;100696.28;4972150;28;19937;-71
2021/06/12 06:24:02;;;;;;;;;;;;;;;20.53;100.00;100701.88;4973695;28;19933;-72
2021/06/12 06:26:28;;;;;;;;;;;;;;;20.65;100.00;100699.50;4972764;28;19926;-71
2021/06/12 06:28:54;;;;;;;;;;;;;;;20.59;100.00;100692.00;4981933;28;20549;-71
2021/06/12 06:31:20;;;;;;;;;;;;;;;20.69;100.00;100686.22;4992184;28;20105;-72
2021/06/12 06:33:45;;;;;;;;;;;;;;;20.76;100.00;100686.31;4981878;28;19933;-72
2021/06/12 06:36:11;;;;;;;;;;;;;;;20.70;100.00;100686.03;4972517;28;19937;-71
2021/06/12 06:38:38;;;;;;;;;;;;;;;20.71;100.00;100689.63;4975156;28;20022;-73
2021/06/12 06:41:04;;;;;;;;;;;;;;;20.64;100.00;100696.94;4979589;28;20421;-73
2021/06/12 06:43:30;;;;;;;;;;;;;;;20.70;100.00;100707.25;4990237;28;19932;-73
2021/06/12 06:45:56;;;;;;;;;;;;;;;20.74;100.00;100701.13;4991412;28;19926;-72
2021/06/12 06:48:22;;;;;;;;;;;;;;;20.76;100.00;100695.44;4977848;28;19981;-72
2021/06/12 06:50:48;;;;;;;;;;;;;;;20.82;100.00;100702.09;4978623;28;19933;-72
2021/06/12 06:53:14;;;;;;;;;;;;;;;20.82;100.00;100697.44;4990978;28;19932;-71
2021/06/12 06:55:41;;;;;;;;;;;;;;;20.83;100.00;100695.50;4989869;28;20384;-72
2021/06/12 06:58:06;;;;;;;;;;;;;;;20.87;100.00;100702.34;4998084;28;19926;-73
2021/06/12 07:00:32;;;;;;;;;;;;;;;20.90;100.00;100705.59;5004855;28;20403;-75
2021/06/12 07:02:59;;;;;;;;;;;;;;;20.89;100.00;100703.03;5011033;28;19925;-74
2021/06/12 07:05:26;;;;;;;;;;;;;;;20.96;100.00;100705.88;4994061;28;19930;-75
2021/06/12 07:07:52;;;;;;;;;;;;;;;21.23;100.00;100694.09;4991953;28;19934;-74
2021/06/12 07:10:18;;;;;;;;;;;;;;;21.50;100.00;100704.53;4982677;28;19926;-74
2021/06/12 07:12:45;;;;;;;;;;;;;;;21.39;100.00;100704.03;4971362;28;20096;-73
2021/06/12 07:15:11;;;;;;;;;;;;;;;21.34;100.00;100705.63;4990436;28;19993;-73
2021/06/12 07:17:37;;;;;;;;;;;;;;;21.31;100.00;100703.28;4991546;28;20290;-74
2021/06/12 07:20:04;;;;;;;;;;;;;;;21.46;100.00;100704.09;4982821;28;19934;-74
2021/06/12 07:22:29;;;;;;;;;;;;;;;21.30;100.00;100704.31;4989831;28;19931;-74
2021/06/12 07:24:55;;;;;;;;;;;;;;;21.01;100.00;100706.97;4991511;28;19926;-73
2021/06/12 07:27:21;;;;;;;;;;;;;;;20.75;100.00;100699.22;5003583;28;20369;-73
2021/06/12 07:29:48;;;;;;;;;;;;;;;20.60;100.00;100709.41;4990148;28;19961;-73
2021/06/12 07:32:14;;;;;;;;;;;;;;;20.44;100.00;100700.25;4988034;28;19933;-74
2021/06/12 07:34:40;;;;;;;;;;;;;;;20.20;100.00;100694.00;4994576;28;19925;-73
2021/06/12 07:37:06;;;;;;;;;;;;;;;20.22;100.00;100689.16;4995067;28;20526;-73
2021/06/12 07:39:31;;;;;;;;;;;;;;;20.33;100.00;100682.31;4994982;28;19992;-73
2021/06/12 07:41:57;;;;;;;;;;;;;;;20.28;100.00;100681.16;4994668;28;19925;-73
2021/06/12 07:44:23;;;;;;;;;;;;;;;20.29;100.00;100682.88;5009960;28;19972;-73
2021/06/12 07:46:50;;;;;;;;;;;;;;;20.23;100.00;100679.84;4994518;28;19926;-73
2021/06/12 07:49:16;;;;;;;;;;;;;;;20.12;100.00;100680.28;4994700;28;20388;-73
2021/06/12 07:51:43;;;;;;;;;;;;;;;20.21;100.00;100687.44;4994758;28;19968;-74
2021/06/12 07:54:09;;;;;;;;;;;;;;;20.37;100.00;100683.63;4993204;28;19937;-73
2021/06/12 07:56:34;;;;;;;;;;;;;;;20.54;100.00;100677.94;4994974;28;19926;-73
2021/06/12 07:59:00;;;;;;;;;;;;;;;20.65;100.00;100668.31;4994550;28;20385;-74
2021/06/12 08:01:26;;;;;;;;;;;;;;;20.78;100.00;100673.16;4995055;28;19972;-75
2021/06/12 08:03:54;;;;;;;;;;;;;;;20.66;100.00;100672.81;5009638;28;20036;-73
2021/06/12 08:06:20;;;;;;;;;;;;;;;20.57;100.00;100667.38;4994375;28;19929;-73
2021/06/12 08:08:46;;;;;;;;;;;;;;;20.51;100.00;100657.13;4994409;28;19926;-73
2021/06/12 08:11:11;;;;;;;;;;;;;;;20.64;100.00;100656.41;4994254;28;20355;-74
2021/06/12 08:13:37;;;;;;;;;;;;;;;20.84;100.00;100659.44;4993905;28;19984;-74
2021/06/12 08:16:05;;;;;;;;;;;;;;;20.76;100.00;100665.09;4994400;28;20394;-73
2021/06/12 08:18:31;;;;;;;;;;;;;;;20.83;100.00;100668.81;4992762;28;19977;-73
2021/06/12 08:20:58;;;;;;;;;;;;;;;20.85;100.00;100663.09;4994371;28;20364;-73
2021/06/12 08:23:24;;;;;;;;;;;;;;;21.00;100.00;100655.59;4993931;28;19933;-73
2021/06/12 08:25:50;;;;;;;;;;;;;;;21.07;100.00;100659.31;5009076;28;19981;-74
2021/06/12 08:28:16;;;;;;;;;;;;;;;21.11;100.00;100651.50;4993951;28;19930;-72
2021/06/12 08:30:41;;;;;;;;;;;;;;;21.15;100.00;100651.94;4993840;28;20388;-72
2021/06/12 08:33:08;;;;;;;;;;;;;;;21.09;100.00;100645.31;4993923;28;19937;-74
2021/06/12 08:35:34;;;;;;;;;;;;;;;21.18;100.00;100646.91;4993749;28;19930;-72
2021/06/12 08:38:02;;;;;;;;;;;;;;;21.20;100.00;100633.75;4994059;28;20348;-72
2021/06/12 08:40:28;;;;;;;;;;;;;;;21.26;100.00;100632.13;4993799;28;20348;-73
2021/06/12 08:42:54;;;;;;;;;;;;;;;21.29;100.00;100636.38;4993545;28;19925;-74
2021/06/12 08:45:22;;;;;;;;;;;;;;;21.27;100.00;100641.25;4994143;28;19981;-73
2021/06/12 08:47:48;;;;;;;;;;;;;;;21.13;100.00;100640.25;4993411;28;20025;-74
2021/06/12 08:50:14;;;;;;;;;;;;;;;21.06;100.00;100637.44;4993884;28;19933;-73
2021/06/12 08:52:40;;;;;;;;;;;;;;;20.94;100.00;100626.06;4993382;28;19926;-73
2021/06/12 08:55:09;;;;;;;;;;;;;;;21.01;100.00;100635.25;4993546;28;19930;-74
2021/06/12 08:57:35;;;;;;;;;;;;;;;20.93;100.00;100634.53;4993698;28;19933;-71
2021/06/12 09:00:01;;;;;;;;;;;;;;;20.98;100.00;100630.13;4992994;28;19996;-73
2021/06/12 09:02:26;;;;;;;;;;;;;;;21.14;100.00;100626.25;4993578;28;20388;-73
2021/06/12 09:04:54;;;;;;;;;;;;;;;21.00;100.00;100635.44;4992028;28;19929;-73
2021/06/12 09:07:21;;;;;;;;;;;;;;;21.11;100.00;100634.94;4993468;28;20016;-73
2021/06/12 09:09:47;;;;;;;;;;;;;;;21.06;100.00;100626.41;4993476;28;19932;-73
2021/06/12 09:12:14;;;;;;;;;;;;;;;21.18;100.00;100627.56;4992971;28;19933;-74
2021/06/12 09:14:40;;;;;;;;;;;;;;;21.01;100.00;100629.72;4993547;28;19925;-73
2021/06/12 09:17:06;;;;;;;;;;;;;;;20.79;100.00;100631.63;5007724;28;20024;-73
2021/06/12 09:19:38;;;;;;;;;;;;;;;20.53;100.00;100624.69;5008762;28;20032;-73
2021/06/12 09:22:06;;;;;;;;;;;;;;;20.51;100.00;100635.06;4993502;28;19972;-73
2021/06/12 09:24:35;;;;;;;;;;;;;;;20.47;100.00;100631.00;4992792;28;19936;-73
2021/06/12 09:27:02;;;;;;;;;;;;;;;20.39;100.00;100626.44;4992905;28;19933;-73
2021/06/12 09:29:36;;;;;;;;;;;;;;;20.35;100.00;100618.72;4992824;28;19929;-73
2021/06/12 09:32:09;;;;;;;;;;;;;;;20.54;100.00;100618.13;4992916;28;19960;-72
2021/06/12 09:34:35;;;;;;;;;;;;;;;20.49;100.00;100615.09;4992452;28;19957;-74
2021/06/12 09:37:08;;;;;;;;;;;;;;;20.49;100.00;100625.28;4992910;28;19926;-73
2021/06/12 09:39:34;;;;;;;;;;;;;;;20.27;100.00;100632.59;4992910;28;19933;-73
2021/06/12 09:42:00;;;;;;;;;;;;;;;19.94;100.00;100630.25;4992365;28;19930;-73
2021/06/12 09:44:29;;;;;;;;;;;;;;;19.63;100.00;100648.56;4992777;28;19926;-72
2021/06/12 09:46:57;;;;;;;;;;;;;;;19.20;100.00;100657.34;4992395;28;20004;-72
2021/06/12 09:49:30;;;;;;;;;;;;;;;18.79;100.00;100663.09;4992846;28;19925;-72
2021/06/12 09:52:00;;;;;;;;;;;;;;;18.61;100.00;100668.81;4992494;28;19926;-72
2021/06/12 09:54:33;;;;;;;;;;;;;;;18.51;100.00;100674.56;4991443;28;19933;-72
2021/06/12 09:56:59;;;;;;;;;;;;;;;18.46;100.00;100678.88;5007047;28;19988;-72
2021/06/12 09:59:25;;;;;;;;;;;;;;;18.40;100.00;100684.03;4990357;28;19926;-72
2021/06/12 10:01:51;;;;;;;;;;;;;;;18.35;100.00;100683.72;5004332;28;20045;-72
2021/06/12 10:04:19;;;;;;;;;;;;;;;18.35;100.00;100686.44;4989144;28;19940;-72
2021/06/12 10:06:45;;;;;;;;;;;;;;;18.40;100.00;100689.53;4991890;28;19926;-72
2021/06/12 10:09:11;;;;;;;;;;;;;;;18.54;100.00;100682.44;4992162;28;19980;-72
2021/06/12 10:11:37;;;;;;;;;;;;;;;18.63;100.00;100680.50;4991953;28;20381;-72
2021/06/12 10:14:03;;;;;;;;;;;;;;;18.66;100.00;100677.41;4991901;28;19926;-72
2021/06/12 10:16:30;;;;;;;;;;;;;;;18.41;100.00;100665.66;4992283;28;19957;-72
2021/06/12 10:18:56;;;;;;;;;;;;;;;18.29;100.00;100664.31;4992178;28;19933;-72
2021/06/12 10:21:23;;;;;;;;;;;;;;;18.16;100.00;100652.00;4992252;28;19929;-71
2021/06/12 10:23:50;;;;;;;;;;;;;;;18.21;100.00;100668.81;4991682;28;19988;-71
2021/06/12 10:26:17;;;;;;;;;;;;;;;18.32;100.00;100667.59;4992438;28;19926;-72
2021/06/12 10:28:43;;;;;;;;;;;;;;;18.60;100.00;100671.75;4991818;28;19991;-72
2021/06/12 10:31:10;;;;;;;;;;;;;;;18.82;100.00;100673.72;4991975;28;19926;-71
2021/06/12 10:33:39;;;;;;;;;;;;;;;19.14;100.00;100654.47;4992081;28;20075;-72
2021/06/12 10:36:12;;;;;;;;;;;;;;;19.57;100.00;100646.56;4991756;28;19929;-72
2021/06/12 10:38:40;;;;;;;;;;;;;;;19.65;100.00;100635.47;4992078;28;19926;-72
2021/06/12 10:41:16;;;;;;;;;;;;;;;19.85;100.00;100633.06;4987975;28;19926;-72
2021/06/12 10:43:42;;;;;;;;;;;;;;;20.14;100.00;100623.13;4984644;28;19976;-72
2021/06/12 10:46:12;;;;;;;;;;;;;;;20.78;100.00;100623.53;4976049;28;19930;-72
2021/06/12 10:48:41;;;;;;;;;;;;;;;21.02;100.00;100614.88;4972253;28;19930;-72
2021/06/12 10:51:07;;;;;;;;;;;;;;;21.14;100.00;100609.72;4986162;28;19930;-72
2021/06/12 10:53:34;;;;;;;;;;;;;;;21.29;100.00;100598.59;5009277;28;20002;-72
2021/06/12 10:56:01;;;;;;;;;;;;;;;21.12;100.00;100595.25;5026993;28;20030;-72
2021/06/12 10:58:46;;;;;;;;;;;;;;;21.28;100.00;100596.03;4977294;28;19926;-73
2021/06/12 11:01:14;;;;;;;;;;;;;;;21.05;100.00;100588.81;4985239;28;19929;-72
2021/06/12 11:03:46;;;;;;;;;;;;;;;21.32;100.00;100587.13;4973273;28;19926;-72
2021/06/12 11:06:32;;;;;;;;;;;;;;;21.20;100.00;100581.31;4972025;28;19957;-72
2021/06/12 11:09:18;;;;;;;;;;;;;;;20.96;100.00;100577.03;4975791;28;19926;-73
2021/06/12 11:11:45;;;;;;;;;;;;;;;20.76;100.00;100573.22;4975873;28;20409;-73
2021/06/12 11:14:28;;;;;;;;;;;;;;;20.97;100.00;100566.88;4986373;28;20479;-73
2021/06/12 11:17:13;;;;;;;;;;;;;;;21.19;100.00;100565.81;4995590;28;20052;-72
2021/06/12 11:19:40;;;;;;;;;;;;;;;21.34;100.00;100554.69;4981023;28;19981;-72
2021/06/12 11:22:25;;;;;;;;;;;;;;;21.06;100.00;100555.50;4975723;28;20455;-73
2021/06/12 11:24:52;;;;;;;;;;;;;;;20.68;100.00;100547.44;4991600;28;20054;-72
2021/06/12 11:27:29;;;;;;;;;;;;;;;20.52;100.00;100550.44;4994169;28;19964;-72
2021/06/12 11:30:28;;;;;;;;;;;;;;;20.40;100.00;100539.06;4978774;28;20309;-73
2021/06/12 11:33:08;;;;;;;;;;;;;;;20.18;100.00;100546.44;4934802;29;20442;-72
2021/06/12 11:35:48;;;;;;;;;;;;;;;19.98;100.00;100546.19;4934992;29;20026;-71
2021/06/12 11:38:15;;;;;;;;;;;;;;;19.68;100.00;100559.91;4976748;28;19937;-71
2021/06/12 11:40:49;;;;;;;;;;;;;;;19.61;100.00;100551.53;4995035;28;19926;-71
2021/06/12 11:43:27;;;;;;;;;;;;;;;19.74;100.00;100559.16;4977497;28;20358;-71
2021/06/12 11:45:53;;;;;;;;;;;;;;;20.04;100.00;100553.66;4975654;28;20398;-72
2021/06/12 11:48:20;;;;;;;;;;;;;;;20.50;100.00;100555.31;5004328;28;20033;-72
2021/06/12 11:50:45;;;;;;;;;;;;;;;20.72;100.00;100536.91;4982554;28;20301;-72
2021/06/12 11:53:15;;;;;;;;;;;;;;;20.85;100.00;100537.03;5009861;28;19930;-72
2021/06/12 11:55:41;;;;;;;;;;;;;;;20.95;100.00;100535.84;4987809;28;19933;-72
2021/06/12 11:58:07;;;;;;;;;;;;;;;20.92;100.00;100533.50;4975345;28;19981;-72
2021/06/12 12:00:35;;;;;;;;;;;;;;;20.71;100.00;100546.22;4995515;28;20020;-72
2021/06/12 12:03:02;;;;;;;;;;;;;;;20.38;100.00;100552.19;4993846;28;20369;-72
2021/06/12 12:05:30;;;;;;;;;;;;;;;19.97;100.00;100555.47;4975689;28;19980;-72
2021/06/12 12:07:55;;;;;;;;;;;;;;;19.58;100.00;100584.97;4974605;28;19930;-71
2021/06/12 12:10:24;;;;;;;;;;;;;;;19.01;100.00;100622.06;4993516;28;19980;-72
2021/06/12 12:12:49;;;;;;;;;;;;;;;18.31;100.00;100630.16;4988720;28;19926;-72
2021/06/12 12:15:15;;;;;;;;;;;;;;;17.73;100.00;100633.03;4994128;28;19925;-72
2021/06/12 12:17:42;;;;;;;;;;;;;;;17.41;100.00;100653.13;5003238;28;19929;-72
2021/06/12 12:20:09;;;;;;;;;;;;;;;17.12;100.00;100648.13;5013215;28;19925;-72
2021/06/12 12:22:37;;;;;;;;;;;;;;;17.01;100.00;100643.81;4984738;28;20194;-72
2021/06/12 12:25:03;;;;;;;;;;;;;;;16.87;100.00;100646.16;4974929;28;19934;-71
2021/06/12 12:27:29;;;;;;;;;;;;;;;16.76;100.00;100638.25;4984453;28;19926;-73
2021/06/12 12:29:55;;;;;;;;;;;;;;;16.85;100.00;100640.00;4976011;28;19933;-72